Time;durP1;ratioP1;P1;durP2;ratioP2;P2;SDS_P1;SDS_P2;PMS_P1;PMS_P2;Temp;Humidity;BMP_temperature;BMP_pressure;BME280_temperature;BME280_humidity;BME280_pressure;Samples;Min_cycle;Max_cycle;Signal;HPM_P1;HPM_P2
2021/10/07 00:01:37;;;;;;;4.95;2.05;;;10.30;99.90;;;;;;5054972;28;20037;-68
2021/10/07 00:04:05;;;;;;;6.05;2.13;;;10.30;99.90;;;;;;5058026;28;20037;-69
2021/10/07 00:06:32;;;;;;;5.45;2.40;;;10.30;99.90;;;;;;5070040;28;20897;-68
2021/10/07 00:08:59;;;;;;;5.55;1.80;;;10.30;99.90;;;;;;5065208;28;20095;-66
2021/10/07 00:11:26;;;;;;;5.82;1.88;;;10.30;99.90;;;;;;5067358;28;20048;-66
2021/10/07 00:13:54;;;;;;;4.97;1.88;;;10.30;99.90;;;;;;5075064;28;20051;-66
2021/10/07 00:16:21;;;;;;;5.13;2.05;;;10.30;99.90;;;;;;5060594;28;20039;-68
2021/10/07 00:18:51;;;;;;;4.93;2.13;;;10.30;99.90;;;;;;5086314;28;20071;-66
2021/10/07 00:21:19;;;;;;;5.70;2.20;;;10.30;99.90;;;;;;5072887;28;20067;-66
2021/10/07 00:26:46;;;;;;;5.38;2.53;;;10.30;99.90;;;;;;5084238;28;20071;-68
2021/10/07 00:32:08;;;;;;;5.57;2.20;;;10.30;99.90;;;;;;5082064;28;20045;-68
2021/10/07 00:40:06;;;;;;;6.07;2.40;;;10.40;99.90;;;;;;5082459;28;20048;-69
2021/10/07 00:42:34;;;;;;;4.93;2.20;;;10.40;99.90;;;;;;5085196;28;20493;-69
2021/10/07 00:45:02;;;;;;;4.50;2.45;;;10.40;99.90;;;;;;5085659;28;20048;-68
2021/10/07 00:47:29;;;;;;;8.38;2.75;;;10.40;99.90;;;;;;5083439;28;20047;-66
2021/10/07 00:49:57;;;;;;;5.45;2.20;;;10.40;99.90;;;;;;5084073;28;20454;-68
2021/10/07 00:52:24;;;;;;;6.80;2.40;;;10.40;99.90;;;;;;5065411;28;20044;-68
2021/10/07 00:54:54;;;;;;;7.07;2.30;;;10.40;99.90;;;;;;5072892;28;20046;-68
2021/10/07 00:57:22;;;;;;;6.35;2.55;;;10.40;99.90;;;;;;5053871;28;20510;-68
2021/10/07 00:59:51;;;;;;;5.03;2.63;;;10.50;99.90;;;;;;5076769;28;20040;-67
2021/10/07 01:02:19;;;;;;;5.32;2.60;;;10.50;99.90;;;;;;5075219;28;20043;-68
2021/10/07 01:04:47;;;;;;;5.25;2.40;;;10.50;99.90;;;;;;5070792;28;20048;-68
2021/10/07 01:07:16;;;;;;;7.38;2.72;;;10.50;99.90;;;;;;5078971;28;20052;-68
2021/10/07 01:09:45;;;;;;;4.32;2.20;;;10.50;99.90;;;;;;5073572;28;20072;-68
2021/10/07 01:12:13;;;;;;;4.75;2.10;;;10.50;99.90;;;;;;5084306;28;20482;-68
2021/10/07 01:14:51;;;;;;;5.93;2.33;;;10.50;99.90;;;;;;5074461;28;20040;-68
2021/10/07 01:17:24;;;;;;;5.40;2.20;;;10.50;99.90;;;;;;5068105;28;20044;-68
2021/10/07 01:19:53;;;;;;;5.07;2.33;;;10.50;99.90;;;;;;5073873;28;20036;-68
2021/10/07 01:22:22;;;;;;;4.97;2.33;;;10.40;99.90;;;;;;5083892;28;20044;-68
2021/10/07 01:24:51;;;;;;;5.32;2.13;;;10.40;99.90;;;;;;5074300;28;20052;-68
2021/10/07 01:27:23;;;;;;;5.78;2.45;;;10.40;99.90;;;;;;5077589;28;20498;-68
2021/10/07 01:29:53;;;;;;;5.75;2.65;;;10.40;99.90;;;;;;5045516;28;20044;-68
2021/10/07 01:32:21;;;;;;;8.30;2.55;;;10.40;99.90;;;;;;5067197;28;20045;-68
2021/10/07 01:34:49;;;;;;;4.93;2.40;;;10.40;99.90;;;;;;5071948;28;20061;-68
2021/10/07 01:37:17;;;;;;;4.10;2.03;;;10.40;99.90;;;;;;5068269;28;20054;-68
2021/10/07 01:39:45;;;;;;;10.27;2.40;;;10.40;99.90;;;;;;5082053;28;20067;-68
2021/10/07 01:42:12;;;;;;;8.23;2.58;;;10.40;99.90;;;;;;5074824;28;20068;-68
2021/10/07 01:44:39;;;;;;;7.97;2.83;;;10.40;99.90;;;;;;5081744;28;20072;-68
2021/10/07 01:47:06;;;;;;;4.93;2.20;;;10.50;99.90;;;;;;5052613;28;20049;-68
2021/10/07 01:49:34;;;;;;;8.43;3.10;;;10.50;99.90;;;;;;5059042;28;20403;-68
2021/10/07 01:52:01;;;;;;;6.38;2.42;;;10.50;99.90;;;;;;5071829;28;20048;-68
2021/10/07 01:54:28;;;;;;;4.57;2.53;;;10.50;99.90;;;;;;5064009;28;20045;-68
2021/10/07 01:56:56;;;;;;;4.40;2.58;;;10.50;99.90;;;;;;5088197;28;20582;-68
2021/10/07 01:59:23;;;;;;;4.65;2.30;;;10.50;99.90;;;;;;5073408;28;20037;-68
2021/10/07 02:01:50;;;;;;;5.32;2.67;;;10.50;99.90;;;;;;5085594;28;20418;-68
2021/10/07 02:04:18;;;;;;;6.88;2.58;;;10.50;99.90;;;;;;5075698;28;20132;-68
2021/10/07 02:06:45;;;;;;;6.78;2.78;;;10.50;99.90;;;;;;5074995;28;20059;-68
2021/10/07 02:09:15;;;;;;;6.03;2.72;;;10.50;99.90;;;;;;5089747;28;20052;-68
2021/10/07 02:11:43;;;;;;;3.70;2.22;;;10.50;99.90;;;;;;5086234;28;20073;-68
2021/10/07 02:14:10;;;;;;;5.70;2.50;;;10.60;99.90;;;;;;5079425;28;20121;-68
2021/10/07 02:16:38;;;;;;;5.70;2.60;;;10.50;99.90;;;;;;5072591;28;20041;-68
2021/10/07 02:19:05;;;;;;;6.55;2.40;;;10.60;99.90;;;;;;5089969;28;20101;-68
2021/10/07 02:21:32;;;;;;;5.22;2.50;;;10.50;99.90;;;;;;5089195;28;20051;-68
2021/10/07 02:24:00;;;;;;;5.43;2.40;;;10.50;99.90;;;;;;5080348;28;20050;-68
2021/10/07 02:26:28;;;;;;;4.45;2.20;;;10.60;99.90;;;;;;5076348;28;20388;-68
2021/10/07 02:28:55;;;;;;;3.50;2.00;;;10.60;99.90;;;;;;5076006;28;20045;-68
2021/10/07 02:31:22;;;;;;;4.88;2.00;;;10.50;99.90;;;;;;5076286;28;20382;-68
2021/10/07 02:33:50;;;;;;;4.43;2.25;;;10.50;99.90;;;;;;5073363;28;20044;-68
2021/10/07 02:36:17;;;;;;;3.70;2.40;;;10.50;99.90;;;;;;5070533;28;20040;-68
2021/10/07 02:38:44;;;;;;;6.43;2.38;;;10.50;99.90;;;;;;5076492;28;20064;-68
2021/10/07 02:41:12;;;;;;;5.07;2.20;;;10.50;99.90;;;;;;5077938;28;20362;-68
2021/10/07 02:43:39;;;;;;;4.63;1.80;;;10.50;99.90;;;;;;5075297;28;20044;-68
2021/10/07 02:46:07;;;;;;;6.13;2.65;;;10.50;99.90;;;;;;5073494;28;20518;-68
2021/10/07 02:48:34;;;;;;;5.22;2.20;;;10.50;99.90;;;;;;5074781;28;20485;-68
2021/10/07 02:51:02;;;;;;;4.65;2.05;;;10.50;99.90;;;;;;5078934;28;20119;-68
2021/10/07 02:53:31;;;;;;;4.13;2.13;;;10.50;99.90;;;;;;5070477;28;20059;-68
2021/10/07 02:55:59;;;;;;;4.57;2.22;;;10.50;99.90;;;;;;5068950;28;20127;-68
2021/10/07 02:58:26;;;;;;;5.13;2.30;;;10.40;99.90;;;;;;5057724;28;20051;-68
2021/10/07 03:00:53;;;;;;;5.68;2.25;;;10.40;99.90;;;;;;5074759;28;20045;-68
2021/10/07 03:03:21;;;;;;;4.63;2.47;;;10.40;99.90;;;;;;5070217;28;20095;-68
2021/10/07 03:05:48;;;;;;;4.55;2.03;;;10.40;99.90;;;;;;5086038;28;20040;-68
2021/10/07 03:08:16;;;;;;;4.18;2.13;;;10.40;99.90;;;;;;5084925;28;20054;-68
2021/10/07 03:10:43;;;;;;;5.32;2.50;;;10.40;99.90;;;;;;5080408;28;20043;-66
2021/10/07 03:13:10;;;;;;;6.32;3.08;;;10.40;99.90;;;;;;5074086;28;20054;-66
2021/10/07 03:15:37;;;;;;;6.00;2.38;;;10.40;99.90;;;;;;5074499;28;20090;-67
2021/10/07 03:18:05;;;;;;;4.85;2.47;;;10.40;99.90;;;;;;5071482;28;20171;-67
2021/10/07 03:20:32;;;;;;;4.90;2.38;;;10.40;99.90;;;;;;5070579;28;20505;-67
2021/10/07 03:23:00;;;;;;;10.88;5.18;;;10.40;99.90;;;;;;5071600;28;20052;-67
2021/10/07 03:25:27;;;;;;;7.80;3.97;;;10.50;99.90;;;;;;5075600;28;20058;-67
2021/10/07 03:27:54;;;;;;;5.30;2.72;;;10.50;99.90;;;;;;5071075;28;20059;-67
2021/10/07 03:30:22;;;;;;;6.47;2.78;;;10.50;99.90;;;;;;5072234;28;20579;-67
2021/10/07 03:32:49;;;;;;;6.38;3.45;;;10.60;99.90;;;;;;5071063;28;20135;-67
2021/10/07 03:35:17;;;;;;;6.07;3.30;;;10.60;99.90;;;;;;5070405;28;20051;-67
2021/10/07 03:37:44;;;;;;;7.80;3.13;;;10.60;99.90;;;;;;5070132;28;20040;-67
2021/10/07 03:40:12;;;;;;;6.43;2.53;;;10.60;99.90;;;;;;5070100;28;20041;-67
2021/10/07 03:42:39;;;;;;;5.55;2.67;;;10.60;99.90;;;;;;5073099;28;20037;-67
2021/10/07 03:45:07;;;;;;;6.93;2.75;;;10.60;99.90;;;;;;5067707;28;20036;-67
2021/10/07 03:47:36;;;;;;;5.20;2.95;;;10.70;99.90;;;;;;5078946;28;20138;-67
2021/10/07 03:50:04;;;;;;;6.05;3.08;;;10.70;99.90;;;;;;5076480;28;20521;-66
2021/10/07 03:52:32;;;;;;;7.00;2.75;;;10.70;99.90;;;;;;5067381;28;20094;-67
2021/10/07 03:55:00;;;;;;;5.80;2.78;;;10.70;99.90;;;;;;5071404;28;20058;-66
2021/10/07 03:57:29;;;;;;;7.97;2.85;;;10.60;99.90;;;;;;5071722;28;20055;-67
2021/10/07 03:59:56;;;;;;;5.07;2.53;;;10.70;99.90;;;;;;5068607;28;20043;-67
2021/10/07 04:02:23;;;;;;;6.75;3.20;;;10.70;99.90;;;;;;5070801;28;20041;-66
2021/10/07 04:04:51;;;;;;;6.10;2.85;;;10.60;99.90;;;;;;5067882;28;20108;-67
2021/10/07 04:07:19;;;;;;;12.45;3.22;;;10.60;99.90;;;;;;5072468;28;20048;-67
2021/10/07 04:09:48;;;;;;;7.43;2.70;;;10.60;99.90;;;;;;5075766;28;20049;-67
2021/10/07 04:12:15;;;;;;;6.57;3.97;;;10.60;99.90;;;;;;5081061;28;20056;-66
2021/10/07 04:14:42;;;;;;;7.80;3.30;;;10.50;99.90;;;;;;5073420;28;20422;-66
2021/10/07 04:17:10;;;;;;;8.13;3.53;;;10.50;99.90;;;;;;5075161;28;20051;-66
2021/10/07 04:19:37;;;;;;;6.53;3.30;;;10.50;99.90;;;;;;5076699;28;20085;-67
2021/10/07 04:22:04;;;;;;;6.40;3.40;;;10.50;99.90;;;;;;5081633;28;20086;-67
2021/10/07 04:24:31;;;;;;;7.43;3.53;;;10.50;99.90;;;;;;5078891;28;20040;-67
2021/10/07 04:26:59;;;;;;;6.03;3.17;;;10.50;99.90;;;;;;5071178;28;20060;-67
2021/10/07 04:29:26;;;;;;;9.02;4.70;;;10.50;99.90;;;;;;5048259;28;20044;-67
2021/10/07 04:31:53;;;;;;;8.20;4.13;;;10.40;99.90;;;;;;5075477;28;20091;-68
2021/10/07 04:34:20;;;;;;;11.52;5.57;;;10.40;99.90;;;;;;5079390;28;20823;-68
2021/10/07 04:36:48;;;;;;;9.50;4.65;;;10.40;99.90;;;;;;5076031;28;20056;-68
2021/10/07 04:39:16;;;;;;;11.88;5.20;;;10.40;99.90;;;;;;5081856;28;20058;-68
2021/10/07 04:41:43;;;;;;;10.80;5.35;;;10.40;99.90;;;;;;5064156;28;20052;-67
2021/10/07 04:44:10;;;;;;;8.13;4.85;;;10.40;99.90;;;;;;5082561;28;20044;-67
2021/10/07 04:46:38;;;;;;;10.02;5.32;;;10.40;99.90;;;;;;5086242;28;20044;-67
2021/10/07 04:49:05;;;;;;;9.68;5.90;;;10.40;99.90;;;;;;5082888;28;20044;-67
2021/10/07 04:51:32;;;;;;;9.15;5.20;;;10.40;99.90;;;;;;5061994;28;20044;-67
2021/10/07 04:53:59;;;;;;;14.43;6.35;;;10.30;99.90;;;;;;5050747;28;20072;-67
2021/10/07 04:56:27;;;;;;;9.70;6.13;;;10.30;99.90;;;;;;5053527;28;20383;-67
2021/10/07 04:58:54;;;;;;;11.60;7.55;;;10.30;99.90;;;;;;5075011;28;20513;-67
2021/10/07 05:01:22;;;;;;;12.35;8.73;;;10.40;99.90;;;;;;5066040;28;20981;-67
2021/10/07 05:03:50;;;;;;;12.63;7.95;;;10.40;99.90;;;;;;5070317;28;20509;-67
2021/10/07 05:06:17;;;;;;;10.38;8.18;;;10.40;99.90;;;;;;5067525;28;20414;-67
2021/10/07 05:08:45;;;;;;;12.32;7.78;;;10.30;99.90;;;;;;5083983;28;20055;-67
2021/10/07 05:11:12;;;;;;;12.13;8.18;;;10.30;99.90;;;;;;5072873;28;20096;-68
2021/10/07 05:13:40;;;;;;;13.75;8.70;;;10.30;99.90;;;;;;5079828;28;20048;-67
2021/10/07 05:16:07;;;;;;;12.90;8.13;;;10.30;99.90;;;;;;5075368;28;20046;-68
2021/10/07 05:18:34;;;;;;;11.68;7.85;;;10.30;99.90;;;;;;5081848;28;20061;-68
2021/10/07 05:21:02;;;;;;;14.40;8.88;;;10.30;99.90;;;;;;5079030;28;20483;-67
2021/10/07 05:23:29;;;;;;;13.75;9.15;;;10.30;99.90;;;;;;5080793;28;20128;-67
2021/10/07 05:25:57;;;;;;;11.18;8.20;;;10.30;99.90;;;;;;5080322;28;20032;-68
2021/10/07 05:28:24;;;;;;;11.63;8.05;;;10.30;99.90;;;;;;5073557;28;20472;-68
2021/10/07 05:30:51;;;;;;;10.52;7.30;;;10.40;99.90;;;;;;5082215;28;20044;-69
2021/10/07 05:33:21;;;;;;;12.68;7.72;;;10.40;99.90;;;;;;5077364;28;20071;-68
2021/10/07 05:35:50;;;;;;;11.52;7.80;;;10.40;99.90;;;;;;5076308;28;20051;-69
2021/10/07 05:38:18;;;;;;;10.40;7.13;;;10.40;99.90;;;;;;5070243;28;20501;-69
2021/10/07 05:40:45;;;;;;;9.43;6.47;;;10.50;99.90;;;;;;5083295;28;20401;-69
2021/10/07 05:43:12;;;;;;;10.13;7.13;;;10.50;99.90;;;;;;5077228;28;20033;-69
2021/10/07 05:45:40;;;;;;;10.23;7.35;;;10.60;99.90;;;;;;5078001;28;20045;-69
2021/10/07 05:48:07;;;;;;;11.40;7.40;;;10.60;99.90;;;;;;5082439;28;20510;-69
2021/10/07 05:50:34;;;;;;;11.48;8.20;;;10.70;99.90;;;;;;5077951;28;20074;-69
2021/10/07 05:53:02;;;;;;;13.40;8.10;;;10.70;99.90;;;;;;5054142;28;20761;-68
2021/10/07 05:55:29;;;;;;;14.77;8.02;;;10.70;99.90;;;;;;5053753;28;20056;-68
2021/10/07 05:57:57;;;;;;;11.95;8.05;;;10.70;99.90;;;;;;5073536;28;20044;-68
2021/10/07 06:00:25;;;;;;;14.38;8.15;;;10.60;99.90;;;;;;5064105;28;20432;-68
2021/10/07 06:02:52;;;;;;;13.02;7.50;;;10.50;99.90;;;;;;5073307;28;20044;-68
2021/10/07 06:05:19;;;;;;;9.70;6.65;;;10.40;99.90;;;;;;5055086;28;20041;-67
2021/10/07 06:07:47;;;;;;;16.20;9.40;;;10.30;99.90;;;;;;5059667;28;20127;-67
2021/10/07 06:10:14;;;;;;;11.45;7.43;;;10.30;99.90;;;;;;5061477;28;20080;-69
2021/10/07 06:12:43;;;;;;;11.38;7.00;;;10.20;99.90;;;;;;5055783;28;20040;-67
2021/10/07 06:15:11;;;;;;;10.60;5.70;;;10.20;99.90;;;;;;5055408;28;20052;-68
2021/10/07 06:17:39;;;;;;;13.55;8.38;;;10.20;99.90;;;;;;5058859;28;20135;-68
2021/10/07 06:20:19;;;;;;;11.82;7.60;;;10.10;99.90;;;;;;5077019;28;20044;-67
2021/10/07 06:22:48;;;;;;;11.15;6.95;;;10.20;99.90;;;;;;5065120;28;20039;-67
2021/10/07 06:25:20;;;;;;;12.23;7.95;;;10.20;99.90;;;;;;5076898;28;20036;-67
2021/10/07 06:27:50;;;;;;;12.35;8.18;;;10.20;99.90;;;;;;5073408;28;20036;-67
2021/10/07 06:30:22;;;;;;;10.02;7.55;;;10.30;99.90;;;;;;5070592;28;20597;-67
2021/10/07 06:32:49;;;;;;;10.55;7.28;;;10.40;99.90;;;;;;5066651;28;20045;-68
2021/10/07 06:35:17;;;;;;;12.23;7.88;;;10.50;99.90;;;;;;5074063;28;20451;-67
2021/10/07 06:37:45;;;;;;;13.00;8.30;;;10.50;99.90;;;;;;5058007;28;20102;-68
2021/10/07 06:40:13;;;;;;;10.90;7.30;;;10.50;99.90;;;;;;5069273;28;20098;-68
2021/10/07 06:42:40;;;;;;;12.07;8.35;;;10.60;99.90;;;;;;5069505;28;20046;-68
2021/10/07 06:45:09;;;;;;;11.35;7.97;;;10.60;99.90;;;;;;5064549;28;20056;-68
2021/10/07 06:47:37;;;;;;;10.38;7.80;;;10.70;99.90;;;;;;5072407;28;20044;-68
2021/10/07 06:50:10;;;;;;;13.07;8.38;;;10.90;99.90;;;;;;5072740;28;20087;-68
2021/10/07 06:52:41;;;;;;;13.70;8.35;;;11.10;99.90;;;;;;5058900;28;20049;-68
2021/10/07 06:55:10;;;;;;;10.37;7.87;;;11.20;99.90;;;;;;5067373;28;20478;-68
2021/10/07 06:57:39;;;;;;;13.00;7.47;;;11.30;99.90;;;;;;5088896;28;20064;-68
2021/10/07 07:00:08;;;;;;;12.07;8.68;;;11.30;99.90;;;;;;5081391;28;20456;-68
2021/10/07 07:02:37;;;;;;;11.20;7.43;;;11.40;99.90;;;;;;5073771;28;20048;-68
2021/10/07 07:05:06;;;;;;;12.02;8.63;;;11.50;99.90;;;;;;5075851;28;20040;-68
2021/10/07 07:07:34;;;;;;;15.38;8.57;;;11.50;99.90;;;;;;5086191;28;20494;-68
2021/10/07 07:10:03;;;;;;;12.35;8.63;;;11.60;99.90;;;;;;5061830;28;20044;-68
2021/10/07 07:12:41;;;;;;;11.50;7.22;;;11.60;99.90;;;;;;5080606;28;20051;-68
2021/10/07 07:15:09;;;;;;;11.48;7.93;;;11.70;99.90;;;;;;5076874;28;20044;-68
2021/10/07 07:17:37;;;;;;;11.48;7.70;;;11.60;99.90;;;;;;5062581;28;20045;-68
2021/10/07 07:20:05;;;;;;;13.63;7.80;;;11.50;99.90;;;;;;5071207;28;20048;-69
2021/10/07 07:22:32;;;;;;;13.65;9.52;;;11.50;99.90;;;;;;5064169;28;20524;-68
2021/10/07 07:25:00;;;;;;;12.27;9.35;;;11.70;99.90;;;;;;5072388;28;20510;-69
2021/10/07 07:27:27;;;;;;;13.90;9.27;;;11.70;99.90;;;;;;5069883;28;20487;-68
2021/10/07 07:29:55;;;;;;;10.77;7.95;;;11.90;99.90;;;;;;5068083;28;20045;-69
2021/10/07 07:32:23;;;;;;;17.38;9.02;;;12.00;99.90;;;;;;5067515;28;20047;-70
2021/10/07 07:34:50;;;;;;;12.68;7.60;;;12.10;99.90;;;;;;5079082;28;20043;-68
2021/10/07 07:37:20;;;;;;;10.75;7.72;;;12.10;99.90;;;;;;5060233;28;20040;-69
2021/10/07 07:39:47;;;;;;;10.40;7.15;;;12.30;99.90;;;;;;5072219;28;20033;-68
2021/10/07 07:42:15;;;;;;;14.77;8.13;;;12.30;99.90;;;;;;5069666;28;20502;-68
2021/10/07 07:44:42;;;;;;;11.60;7.90;;;12.40;99.90;;;;;;5075195;28;20056;-68
2021/10/07 07:47:09;;;;;;;11.63;8.27;;;12.50;99.90;;;;;;5071805;28;20040;-68
2021/10/07 07:49:38;;;;;;;12.63;7.80;;;12.50;99.90;;;;;;5071067;28;20438;-68
2021/10/07 07:52:07;;;;;;;11.35;8.77;;;12.60;99.90;;;;;;5061417;28;20133;-68
2021/10/07 07:54:35;;;;;;;13.25;8.07;;;12.70;99.90;;;;;;5070152;28;20090;-68
2021/10/07 07:57:02;;;;;;;10.95;7.70;;;12.80;99.90;;;;;;5074394;28;20415;-68
2021/10/07 07:59:29;;;;;;;11.27;7.38;;;12.80;99.90;;;;;;5052874;28;20048;-68
2021/10/07 08:01:57;;;;;;;13.00;7.53;;;12.80;99.90;;;;;;5071861;28;20028;-69
2021/10/07 08:04:25;;;;;;;8.60;5.95;;;12.80;99.90;;;;;;5064842;28;20037;-68
2021/10/07 08:06:53;;;;;;;10.55;7.45;;;12.80;99.90;;;;;;5045520;28;20044;-68
2021/10/07 08:09:22;;;;;;;10.98;7.10;;;12.70;99.90;;;;;;5085795;28;20047;-68
2021/10/07 08:11:49;;;;;;;8.00;6.05;;;12.80;99.90;;;;;;5084443;28;20040;-68
2021/10/07 08:14:17;;;;;;;9.07;6.68;;;12.90;99.90;;;;;;5081961;28;20040;-68
2021/10/07 08:16:45;;;;;;;11.73;7.18;;;12.90;99.90;;;;;;5079046;28;20601;-68
2021/10/07 08:19:12;;;;;;;8.38;6.53;;;12.80;99.90;;;;;;5083579;28;20120;-70
2021/10/07 08:21:41;;;;;;;10.52;6.97;;;13.00;99.90;;;;;;5076528;28;20060;-69
2021/10/07 08:24:10;;;;;;;11.85;7.25;;;13.20;99.90;;;;;;5066789;28;20041;-69
2021/10/07 08:26:37;;;;;;;10.40;7.00;;;13.30;99.90;;;;;;5072627;28;20116;-68
2021/10/07 08:29:05;;;;;;;13.50;6.93;;;13.40;99.90;;;;;;5067483;28;20127;-68
2021/10/07 08:31:32;;;;;;;12.50;6.80;;;13.50;99.90;;;;;;5077570;28;20048;-68
2021/10/07 08:33:59;;;;;;;10.13;6.00;;;13.60;99.90;;;;;;5072740;28;20499;-68
2021/10/07 08:36:26;;;;;;;10.35;6.90;;;13.60;99.90;;;;;;5054536;28;20060;-68
2021/10/07 08:38:54;;;;;;;10.73;6.68;;;13.60;99.90;;;;;;5069176;28;20059;-68
2021/10/07 08:41:21;;;;;;;12.02;6.60;;;13.70;99.90;;;;;;5078213;28;20499;-68
2021/10/07 08:43:50;;;;;;;10.80;7.15;;;13.80;99.90;;;;;;5071863;28;20490;-69
2021/10/07 08:46:23;;;;;;;9.15;6.38;;;13.80;99.90;;;;;;5074380;28;20056;-69
2021/10/07 08:48:51;;;;;;;10.85;7.22;;;13.80;99.90;;;;;;5071108;28;20045;-68
2021/10/07 08:51:18;;;;;;;15.57;7.63;;;14.00;99.90;;;;;;5065883;28;20704;-69
2021/10/07 08:53:46;;;;;;;9.82;5.82;;;14.00;99.90;;;;;;5061373;28;20046;-69
2021/10/07 08:56:14;;;;;;;14.32;6.95;;;14.00;99.90;;;;;;5073092;28;20680;-69
2021/10/07 08:58:41;;;;;;;12.77;7.22;;;14.10;99.90;;;;;;5076035;28;20043;-69
2021/10/07 09:01:37;;;;;;;9.23;6.68;;;14.20;99.90;;;;;;5070157;28;20044;-69
2021/10/07 09:04:20;;;;;;;12.70;6.85;;;14.40;99.90;;;;;;5080443;28;20135;-69
2021/10/07 09:06:59;;;;;;;9.85;6.20;;;14.50;99.90;;;;;;5084610;28;20038;-69
2021/10/07 09:09:28;;;;;;;15.15;8.73;;;14.50;99.90;;;;;;5079676;28;20098;-68
2021/10/07 09:12:01;;;;;;;19.35;10.60;;;14.50;99.90;;;;;;5071139;28;20047;-69
2021/10/07 09:14:34;;;;;;;12.10;6.18;;;14.50;99.90;;;;;;5079669;28;20040;-69
2021/10/07 09:17:05;;;;;;;9.20;5.43;;;14.50;99.90;;;;;;5084362;28;20042;-69
2021/10/07 09:19:46;;;;;;;9.88;5.35;;;14.50;99.90;;;;;;5075382;28;20055;-69
2021/10/07 09:22:18;;;;;;;;;;;14.40;99.90;;;;;;5060243;28;20037;-69
2021/10/07 09:24:51;;;;;;;6.47;4.30;;;14.40;99.90;;;;;;5075416;28;19920;-69
2021/10/07 09:27:19;;;;;;;9.93;5.13;;;14.30;99.90;;;;;;5079457;28;20486;-68
2021/10/07 09:29:50;;;;;;;7.20;4.35;;;14.30;99.90;;;;;;5059090;28;20053;-68
2021/10/07 09:32:28;;;;;;;7.88;4.75;;;14.40;99.90;;;;;;5071342;28;20051;-69
2021/10/07 09:34:58;;;;;;;7.85;4.25;;;14.30;99.90;;;;;;5071889;28;20048;-69
2021/10/07 09:37:37;;;;;;;8.32;4.75;;;14.30;99.90;;;;;;5073638;28;20044;-68
2021/10/07 09:40:11;;;;;;;10.27;5.22;;;14.30;99.90;;;;;;5068917;28;20506;-68
2021/10/07 09:42:49;;;;;;;8.20;4.97;;;14.10;99.90;;;;;;5070655;28;20052;-68
2021/10/07 09:45:24;;;;;;;10.63;6.35;;;14.20;99.90;;;;;;5070935;28;20048;-68
2021/10/07 09:48:00;;;;;;;10.00;5.55;;;14.20;99.90;;;;;;5057690;28;20036;-69
2021/10/07 09:50:40;;;;;;;9.88;4.97;;;14.30;99.90;;;;;;5072241;28;20564;-69
2021/10/07 09:53:17;;;;;;;10.07;6.00;;;14.40;99.90;;;;;;5057341;28;20379;-69
2021/10/07 09:55:48;;;;;;;7.70;4.57;;;14.50;99.90;;;;;;5052962;28;20041;-68
2021/10/07 09:58:23;;;;;;;6.43;4.20;;;14.60;99.90;;;;;;5067221;28;20046;-68
2021/10/07 10:00:52;;;;;;;5.95;3.47;;;14.60;99.90;;;;;;5070757;28;20058;-68
2021/10/07 10:03:24;;;;;;;6.63;3.38;;;14.70;99.90;;;;;;5077314;28;20090;-68
2021/10/07 10:05:52;;;;;;;;;;;14.90;99.90;;;;;;5077451;28;20040;-68
2021/10/07 10:08:20;;;;;;;6.22;3.97;;;15.10;99.90;;;;;;5084445;28;19924;-68
2021/10/07 10:10:53;;;;;;;6.55;3.85;;;15.20;99.90;;;;;;5083996;28;20052;-69
2021/10/07 10:13:20;;;;;;;11.95;4.60;;;15.30;99.90;;;;;;5074079;28;20044;-68
2021/10/07 10:15:47;;;;;;;6.05;3.60;;;15.30;99.90;;;;;;5062276;28;20045;-68
2021/10/07 10:18:16;;;;;;;5.53;3.30;;;15.40;99.90;;;;;;5075255;28;20048;-70
2021/10/07 10:20:51;;;;;;;8.32;4.15;;;15.50;99.90;;;;;;5076275;28;20438;-70
2021/10/07 10:23:23;;;;;;;8.85;3.63;;;15.50;99.90;;;;;;5080662;28;20113;-69
2021/10/07 10:25:53;;;;;;;9.35;5.55;;;15.80;99.90;;;;;;5086621;28;20040;-69
2021/10/07 10:28:38;;;;;;;5.88;3.47;;;15.90;99.90;;;;;;5082306;28;21128;-69
2021/10/07 10:31:07;;;;;;;5.97;3.40;;;16.10;99.90;;;;;;5050466;28;20435;-70
2021/10/07 10:33:37;;;;;;;6.13;3.60;;;16.10;99.90;;;;;;5072295;28;20051;-70
2021/10/07 10:36:30;;;;;;;5.50;3.42;;;16.30;99.90;;;;;;5086449;28;20050;-70
2021/10/07 10:39:31;;;;;;;5.60;3.38;;;16.60;99.90;;;;;;5078640;28;20043;-69
2021/10/07 10:42:05;;;;;;;6.97;3.38;;;17.00;99.90;;;;;;5078248;28;20044;-70
2021/10/07 10:44:56;;;;;;;6.93;3.33;;;17.70;99.90;;;;;;5076947;28;20391;-70
2021/10/07 10:47:40;;;;;;;6.22;3.75;;;18.20;99.90;;;;;;5066423;28;20044;-70
2021/10/07 10:50:12;;;;;;;5.78;3.63;;;18.60;99.90;;;;;;5069609;28;20055;-70
2021/10/07 10:52:54;;;;;;;3.90;2.67;;;18.50;99.90;;;;;;5073390;28;20413;-70
2021/10/07 10:55:26;;;;;;;7.22;3.13;;;18.20;99.90;;;;;;5076190;28;20040;-69
2021/10/07 10:58:06;;;;;;;6.80;3.03;;;17.80;99.90;;;;;;5069903;28;20123;-70
2021/10/07 11:00:51;;;;;;;6.07;3.00;;;17.30;99.90;;;;;;5068729;28;20048;-69
2021/10/07 11:03:23;;;;;;;4.80;2.33;;;17.00;99.90;;;;;;5074127;28;20410;-69
2021/10/07 11:06:05;;;;;;;5.28;3.13;;;17.00;99.90;;;;;;5078187;28;20048;-70
2021/10/07 11:08:35;;;;;;;7.28;3.10;;;16.90;99.90;;;;;;5070420;28;20044;-70
2021/10/07 11:11:10;;;;;;;5.85;2.85;;;17.00;99.90;;;;;;5069728;28;20532;-69
2021/10/07 11:13:47;;;;;;;6.80;3.05;;;17.20;99.90;;;;;;5081709;28;20036;-70
2021/10/07 11:16:18;;;;;;;6.05;2.40;;;17.70;99.90;;;;;;5077767;28;20040;-68
2021/10/07 11:18:47;;;;;;;7.22;3.25;;;18.00;99.90;;;;;;5081924;28;20398;-69
2021/10/07 11:21:17;;;;;;;6.57;2.53;;;18.10;99.90;;;;;;5078449;28;20052;-69
2021/10/07 11:23:52;;;;;;;5.68;2.83;;;17.90;99.90;;;;;;5074141;28;20054;-69
2021/10/07 11:26:22;;;;;;;5.43;3.10;;;17.50;99.90;;;;;;5077052;28;20040;-69
2021/10/07 11:28:50;;;;;;;7.22;3.20;;;17.10;99.90;;;;;;5080060;28;20415;-70
2021/10/07 11:31:24;;;;;;;6.07;2.95;;;16.90;99.90;;;;;;5081316;28;20052;-70
2021/10/07 11:33:58;;;;;;;7.25;3.05;;;16.80;99.90;;;;;;5075022;28;20048;-69
2021/10/07 11:36:28;;;;;;;6.50;2.80;;;16.80;99.90;;;;;;5081519;28;20406;-69
2021/10/07 11:38:56;;;;;;;4.72;2.40;;;17.10;99.90;;;;;;5081001;28;20490;-70
2021/10/07 11:41:31;;;;;;;5.07;2.50;;;17.50;99.90;;;;;;5080551;28;20131;-68
2021/10/07 11:44:04;;;;;;;7.93;2.65;;;17.80;99.90;;;;;;5071746;28;20065;-70
2021/10/07 11:46:35;;;;;;;4.60;2.22;;;18.00;99.90;;;;;;5080004;28;20368;-70
2021/10/07 11:49:03;;;;;;;5.30;2.70;;;18.10;99.90;;;;;;5076495;28;20040;-70
2021/10/07 11:51:32;;;;;;;4.43;2.15;;;18.20;99.90;;;;;;5068514;28;20128;-70
2021/10/07 11:54:04;;;;;;;6.70;2.20;;;18.30;99.90;;;;;;5069330;28;20051;-70
2021/10/07 11:56:36;;;;;;;4.38;2.03;;;18.20;99.90;;;;;;5071470;28;20459;-70
2021/10/07 11:59:10;;;;;;;8.10;4.00;;;18.10;99.90;;;;;;5065740;28;20044;-70
2021/10/07 12:01:39;;;;;;;5.78;3.42;;;17.90;99.90;;;;;;5069881;28;20053;-70
2021/10/07 12:04:07;;;;;;;4.82;2.67;;;17.70;99.90;;;;;;5076125;28;20422;-70
2021/10/07 12:06:36;;;;;;;4.60;2.40;;;17.60;99.90;;;;;;5080944;28;20075;-70
2021/10/07 12:09:09;;;;;;;5.45;2.33;;;17.50;99.90;;;;;;5082147;28;20094;-70
2021/10/07 12:11:37;;;;;;;5.03;2.50;;;17.40;99.90;;;;;;5079757;28;20124;-70
2021/10/07 12:14:05;;;;;;;5.35;2.45;;;17.10;99.90;;;;;;5087440;28;20044;-70
2021/10/07 12:16:37;;;;;;;6.97;3.83;;;17.00;99.90;;;;;;5085684;28;20387;-70
2021/10/07 12:19:07;;;;;;;12.15;5.72;;;16.90;99.90;;;;;;5076362;28;20044;-70
2021/10/07 12:21:40;;;;;;;8.55;3.85;;;17.00;99.90;;;;;;5064913;28;20537;-70
2021/10/07 12:24:13;;;;;;;5.85;3.35;;;17.20;99.90;;;;;;5078723;28;20051;-70
2021/10/07 12:26:48;;;;;;;4.70;2.83;;;17.40;99.90;;;;;;5073388;28;20036;-70
2021/10/07 12:29:21;;;;;;;7.25;2.95;;;17.60;99.90;;;;;;5083276;28;20059;-70
2021/10/07 12:31:53;;;;;;;4.50;2.10;;;18.10;99.90;;;;;;5076459;28;20498;-70
2021/10/07 12:34:24;;;;;;;7.47;2.72;;;19.10;99.90;;;;;;5082391;28;20401;-70
2021/10/07 12:36:53;;;;;;;7.50;4.47;;;20.10;99.90;;;;;;5079667;28;20070;-70
2021/10/07 12:39:34;;;;;;;7.68;4.15;;;21.30;99.90;;;;;;5082289;28;20048;-70
2021/10/07 12:42:13;;;;;;;4.45;2.33;;;21.80;99.90;;;;;;5084463;28;20048;-70
2021/10/07 12:44:45;;;;;;;4.30;2.03;;;22.40;99.90;;;;;;5081211;28;20129;-70
2021/10/07 12:47:20;;;;;;;;;;;21.90;99.90;;;;;;5077183;28;20044;-70
2021/10/07 12:49:50;;;;;;;3.65;1.80;;;22.10;99.90;;;;;;5080051;28;19931;-69
2021/10/07 12:52:19;;;;;;;8.45;3.30;;;22.70;99.90;;;;;;5070426;28;20040;-67
2021/10/07 12:54:53;;;;;;;10.50;6.80;;;24.10;99.90;;;;;;5069593;28;20040;-68
2021/10/07 12:57:45;;;;;;;5.18;3.03;;;25.10;99.90;;;;;;5078092;28;20042;-68
2021/10/07 13:00:27;;;;;;;3.53;2.05;;;25.70;99.90;;;;;;5069013;28;20041;-68
2021/10/07 13:02:56;;;;;;;3.75;2.10;;;26.20;99.90;;;;;;5061220;28;20132;-68
2021/10/07 13:05:27;;;;;;;3.20;1.70;;;26.20;99.90;;;;;;5073109;28;20055;-68
2021/10/07 13:07:58;;;;;;;4.95;2.08;;;25.80;99.90;;;;;;5071585;28;20055;-68